createdAt,value
2023-04-22T00:00:57.314Z,61.33
2023-04-22T00:03:26.482Z,61.36
2023-04-22T00:05:55.656Z,61.57
2023-04-22T00:08:25.737Z,61.74
2023-04-22T00:10:54.145Z,62.02
2023-04-22T00:13:24.697Z,62.48
2023-04-22T00:15:52.860Z,62.82
2023-04-22T00:18:21.378Z,62.90
2023-04-22T00:20:49.568Z,62.93
2023-04-22T00:23:17.819Z,62.82
2023-04-22T00:25:45.994Z,62.90
2023-04-22T00:28:14.246Z,63.28
2023-04-22T00:30:42.840Z,63.66
2023-04-22T00:33:11.163Z,63.91
2023-04-22T00:35:39.355Z,64.14
2023-04-22T00:38:07.552Z,64.37
2023-04-22T00:40:36.449Z,64.49
2023-04-22T00:43:04.654Z,64.51
2023-04-22T00:45:33.504Z,64.57
2023-04-22T00:48:01.917Z,64.58
2023-04-22T00:50:30.852Z,64.86
2023-04-22T00:52:59.053Z,65.08
2023-04-22T00:55:27.329Z,65.16
2023-04-22T00:57:55.929Z,64.94
2023-04-22T01:00:28.003Z,64.79
2023-04-22T01:02:57.017Z,64.77
2023-04-22T01:05:25.957Z,65.03
2023-04-22T01:15:08.901Z,64.38
2023-04-22T01:17:37.356Z,64.10
2023-04-22T01:20:10.183Z,63.93
2023-04-22T01:22:42.458Z,64.02
2023-04-22T01:25:11.569Z,64.08
2023-04-22T01:27:41.052Z,64.12
2023-04-22T01:30:09.688Z,64.11
2023-04-22T01:32:41.434Z,64.17
2023-04-22T01:35:10.318Z,64.17
2023-04-22T01:37:38.688Z,64.18
2023-04-22T01:40:08.009Z,64.31
2023-04-22T01:42:36.228Z,64.25
2023-04-22T01:45:05.844Z,64.22
2023-04-22T01:47:34.326Z,64.14
2023-04-22T01:50:02.796Z,64.24
2023-04-22T01:52:31.299Z,64.28
2023-04-22T01:55:04.096Z,64.47
2023-04-22T01:57:32.539Z,64.53
2023-04-22T02:00:01.578Z,64.66
2023-04-22T02:02:30.526Z,64.78
2023-04-22T02:04:58.769Z,64.96
2023-04-22T02:07:26.971Z,64.87
2023-04-22T02:09:55.248Z,64.85
2023-04-22T02:12:23.482Z,65.08
2023-04-22T02:14:51.644Z,65.13
2023-04-22T02:17:20.437Z,65.22
2023-04-22T02:19:48.604Z,65.29
2023-04-22T02:22:17.312Z,65.23
2023-04-22T02:24:45.897Z,65.23
2023-04-22T02:27:14.168Z,65.32
2023-04-22T02:29:42.696Z,65.40
2023-04-22T02:32:11.332Z,65.36
2023-04-22T02:34:39.781Z,65.32
2023-04-22T02:37:08.116Z,65.43
2023-04-22T02:39:36.959Z,65.79
2023-04-22T02:42:05.395Z,65.79
2023-04-22T02:44:34.071Z,65.85
2023-04-22T02:47:04.016Z,65.85
2023-04-22T02:49:34.627Z,65.81
2023-04-22T02:52:02.914Z,65.98
2023-04-22T02:54:31.353Z,66.35
2023-04-22T02:56:59.835Z,66.54
2023-04-22T02:59:28.136Z,66.55
2023-04-22T03:01:56.367Z,66.46
2023-04-22T03:04:36.113Z,66.63
2023-04-22T03:07:04.341Z,66.61
2023-04-22T03:09:33.195Z,66.76
2023-04-22T03:12:02.814Z,66.91
2023-04-22T03:14:31.568Z,67.01
2023-04-22T03:17:00.529Z,66.92
2023-04-22T03:19:29.092Z,66.93
2023-04-22T03:21:59.363Z,67.15
2023-04-22T03:24:28.026Z,67.27
2023-04-22T03:26:56.493Z,67.49
2023-04-22T03:29:24.778Z,67.70
2023-04-22T03:31:53.091Z,67.65
2023-04-22T03:34:21.450Z,67.53
2023-04-22T03:36:49.858Z,67.49
2023-04-22T03:39:18.176Z,67.52
2023-04-22T03:41:46.720Z,67.44
2023-04-22T03:44:14.938Z,67.47
2023-04-22T03:46:43.924Z,67.27
2023-04-22T03:49:24.653Z,67.21
2023-04-22T03:51:52.827Z,67.29
2023-04-22T03:54:22.699Z,67.44
2023-04-22T03:56:53.040Z,67.42
2023-04-22T03:59:22.569Z,67.52
2023-04-22T04:01:51.793Z,67.63
2023-04-22T04:04:24.005Z,67.79
2023-04-22T04:06:56.713Z,67.86
2023-04-22T04:09:25.007Z,67.78
2023-04-22T04:11:53.570Z,67.63
2023-04-22T04:14:21.827Z,67.78
2023-04-22T04:16:52.404Z,67.87
2023-04-22T04:19:30.695Z,68.06
2023-04-22T04:21:59.065Z,68.01
2023-04-22T04:24:28.968Z,67.95
2023-04-22T04:27:03.339Z,67.91
2023-04-22T04:29:37.959Z,67.69
2023-04-22T04:32:11.545Z,67.38
2023-04-22T04:34:39.952Z,67.33
2023-04-22T04:37:11.896Z,67.06
2023-04-22T04:39:50.700Z,66.78
2023-04-22T04:42:24.646Z,66.62
2023-04-22T04:44:58.663Z,66.35
2023-04-22T04:47:28.612Z,66.18
2023-04-22T04:49:59.177Z,65.97
2023-04-22T04:52:27.375Z,65.86
2023-04-22T04:54:55.882Z,65.66
2023-04-22T04:57:24.249Z,65.38
2023-04-22T04:59:53.202Z,64.86
2023-04-22T05:02:22.629Z,64.76
2023-04-22T05:04:52.426Z,64.53
2023-04-22T05:07:20.838Z,64.51
2023-04-22T05:09:50.046Z,64.20
2023-04-22T05:12:18.275Z,64.01
2023-04-22T05:14:46.837Z,63.97
2023-04-22T05:17:15.215Z,63.71
2023-04-22T05:19:43.975Z,63.59
2023-04-22T05:22:12.899Z,63.42
2023-04-22T05:24:41.432Z,63.87
2023-04-22T05:27:10.439Z,63.72
2023-04-22T05:29:39.037Z,63.24
2023-04-22T05:32:09.027Z,62.94
2023-04-22T05:34:37.853Z,62.35
2023-04-22T05:37:06.040Z,61.74
2023-04-22T05:39:35.337Z,61.42
2023-04-22T05:42:04.638Z,61.18
2023-04-22T05:44:32.922Z,61.20
2023-04-22T05:47:01.991Z,60.87
2023-04-22T05:49:30.517Z,59.93
2023-04-22T05:51:58.583Z,59.51
2023-04-22T05:54:30.920Z,58.78
2023-04-22T05:56:59.033Z,58.07
2023-04-22T05:59:27.294Z,56.19
2023-04-22T06:01:56.538Z,55.60
2023-04-22T06:04:26.150Z,53.17
2023-04-22T06:06:54.690Z,52.09
2023-04-22T06:09:22.867Z,51.37
2023-04-22T06:11:51.064Z,51.63
2023-04-22T06:14:19.700Z,49.95
2023-04-22T06:16:50.518Z,49.65
2023-04-22T06:19:18.743Z,49.77
2023-04-22T06:21:47.132Z,48.98
2023-04-22T06:24:15.622Z,48.67
2023-04-22T06:26:43.891Z,48.89
2023-04-22T06:29:13.489Z,47.84
2023-04-22T06:31:42.171Z,49.00
2023-04-22T06:34:11.180Z,48.65
2023-04-22T06:36:40.972Z,47.32
2023-04-22T06:39:11.249Z,46.27
2023-04-22T06:42:04.119Z,44.88
2023-04-22T06:44:52.863Z,43.98
2023-04-22T06:47:36.751Z,43.18
2023-04-22T06:50:11.357Z,42.93
2023-04-22T06:52:47.305Z,42.57
2023-04-22T06:55:16.061Z,42.74
2023-04-22T06:57:44.453Z,42.31
2023-04-22T07:00:13.137Z,41.90
2023-04-22T07:02:42.263Z,42.09
2023-04-22T07:05:10.872Z,42.64
2023-04-22T07:07:39.245Z,42.28
2023-04-22T07:10:08.359Z,42.10
2023-04-22T07:12:41.127Z,42.53
2023-04-22T07:15:09.572Z,42.13
2023-04-22T07:17:38.085Z,41.48
2023-04-22T07:20:07.205Z,41.88
2023-04-22T07:22:35.590Z,41.20
2023-04-22T07:25:04.579Z,40.72
2023-04-22T07:27:35.203Z,40.26
2023-04-22T07:30:06.252Z,40.50
2023-04-22T07:32:34.642Z,40.44
2023-04-22T07:35:02.988Z,39.35
2023-04-22T07:37:38.716Z,39.98
2023-04-22T07:40:11.708Z,39.11
2023-04-22T07:42:42.641Z,39.99
2023-04-22T07:45:13.068Z,40.11
2023-04-22T07:47:42.555Z,39.67
2023-04-22T07:50:14.925Z,38.93
2023-04-22T07:52:43.877Z,38.51
2023-04-22T07:55:12.728Z,38.59
2023-04-22T07:57:42.643Z,39.18
2023-04-22T08:00:12.720Z,39.49
2023-04-22T08:02:47.284Z,38.39
2023-04-22T08:05:16.887Z,38.45
2023-04-22T08:07:45.963Z,37.36
2023-04-22T08:10:15.614Z,37.65
2023-04-22T08:12:44.136Z,37.73
2023-04-22T08:15:12.598Z,37.26
2023-04-22T08:17:40.828Z,35.69
2023-04-22T08:20:15.602Z,35.58
2023-04-22T08:22:44.979Z,35.86
2023-04-22T08:25:13.147Z,35.01
2023-04-22T08:27:41.498Z,33.24
2023-04-22T08:30:10.141Z,34.26
2023-04-22T08:32:38.661Z,34.82
2023-04-22T08:35:07.403Z,34.60
2023-04-22T08:37:35.560Z,33.66
2023-04-22T08:40:04.922Z,33.15
2023-04-22T08:42:33.442Z,32.13
2023-04-22T08:45:04.777Z,32.62
2023-04-22T08:47:36.080Z,32.39
2023-04-22T08:50:04.616Z,32.23
2023-04-22T08:52:33.311Z,32.97
2023-04-22T08:55:02.214Z,33.54
2023-04-22T08:57:30.822Z,32.87
2023-04-22T08:59:59.078Z,32.51
2023-04-22T09:02:27.703Z,32.41
2023-04-22T09:04:55.864Z,31.84
2023-04-22T09:07:25.485Z,32.54
2023-04-22T09:09:57.658Z,31.70
2023-04-22T09:12:25.766Z,31.87
2023-04-22T09:14:54.830Z,31.93
2023-04-22T09:17:33.395Z,31.17
2023-04-22T09:20:02.554Z,31.68
2023-04-22T09:22:43.607Z,31.53
2023-04-22T09:25:18.200Z,31.82
2023-04-22T09:27:51.070Z,31.62
2023-04-22T09:30:29.385Z,31.13
2023-04-22T09:32:59.432Z,31.40
2023-04-22T09:35:28.769Z,32.25
2023-04-22T09:37:57.549Z,31.93
2023-04-22T09:40:25.784Z,32.29
2023-04-22T09:42:55.907Z,32.24
2023-04-22T09:45:39.877Z,32.76
2023-04-22T09:48:14.359Z,32.38
2023-04-22T09:50:50.350Z,32.10
2023-04-22T09:53:22.093Z,32.39
2023-04-22T09:55:54.468Z,32.81
2023-04-22T09:58:24.130Z,32.35
2023-04-22T10:00:59.433Z,32.38
2023-04-22T10:03:29.869Z,31.56
2023-04-22T10:05:59.123Z,31.01
2023-04-22T10:08:28.617Z,31.04
2023-04-22T10:10:56.828Z,32.22
2023-04-22T10:13:26.044Z,30.82
2023-04-22T10:15:55.332Z,30.01
2023-04-22T10:18:25.928Z,30.07
2023-04-22T10:20:54.454Z,29.66
2023-04-22T10:23:23.771Z,29.95
2023-04-22T10:25:55.671Z,29.24
2023-04-22T10:28:25.068Z,29.95
2023-04-22T10:30:53.774Z,30.56
2023-04-22T10:33:27.842Z,29.60
2023-04-22T10:36:09.447Z,28.94
2023-04-22T10:38:58.137Z,28.13
2023-04-22T10:41:29.546Z,29.15
2023-04-22T10:43:59.862Z,29.43
2023-04-22T10:46:32.269Z,30.27
2023-04-22T10:49:07.695Z,30.78
2023-04-22T10:51:42.561Z,29.37
2023-04-22T10:54:28.786Z,28.88
2023-04-22T10:57:09.049Z,30.00
2023-04-22T10:59:43.222Z,29.55
2023-04-22T11:02:32.107Z,30.15
2023-04-22T11:05:19.987Z,29.81
2023-04-22T11:07:56.098Z,29.51
2023-04-22T11:10:44.401Z,29.98
2023-04-22T11:13:21.501Z,29.31
2023-04-22T11:15:54.234Z,30.21
2023-04-22T11:18:27.282Z,30.50
2023-04-22T11:20:55.441Z,30.42
2023-04-22T11:23:26.653Z,29.06
2023-04-22T11:26:03.021Z,28.80
2023-04-22T11:28:31.521Z,30.63
2023-04-22T11:31:07.109Z,28.90
2023-04-22T11:33:36.240Z,28.67
2023-04-22T11:36:04.999Z,28.74
2023-04-22T11:38:33.937Z,27.36
2023-04-22T11:41:02.496Z,27.28
2023-04-22T11:43:31.241Z,28.59
2023-04-22T11:45:59.484Z,28.33
2023-04-22T11:48:27.742Z,28.29
2023-04-22T11:51:11.286Z,27.73
2023-04-22T11:53:41.362Z,28.01
2023-04-22T11:56:09.735Z,28.68
2023-04-22T11:58:41.748Z,28.58
2023-04-22T12:01:12.565Z,29.41
2023-04-22T12:03:40.995Z,29.48
2023-04-22T12:06:09.406Z,29.14
2023-04-22T12:08:42.584Z,28.98
2023-04-22T12:11:11.912Z,28.72
2023-04-22T12:13:42.455Z,29.68
2023-04-22T12:18:36.250Z,28.49
2023-04-22T12:21:04.394Z,28.31
2023-04-22T12:23:46.225Z,28.56
2023-04-22T12:26:17.274Z,29.03
2023-04-22T12:28:45.881Z,28.81
2023-04-22T12:31:14.524Z,28.79
2023-04-22T12:33:42.876Z,28.55
2023-04-22T12:36:14.113Z,27.57
2023-04-22T12:38:42.851Z,27.90
2023-04-22T12:41:10.994Z,26.61
2023-04-22T12:43:41.591Z,27.43
2023-04-22T12:46:10.221Z,28.26
2023-04-22T12:48:43.052Z,29.16
2023-04-22T12:51:14.296Z,28.36
2023-04-22T12:53:43.198Z,28.68
2023-04-22T12:56:13.870Z,28.13
2023-04-22T12:58:43.971Z,28.80
2023-04-22T13:01:15.752Z,29.06
2023-04-22T13:03:53.423Z,28.71
2023-04-22T13:06:23.386Z,28.89
2023-04-22T13:08:52.952Z,29.16
2023-04-22T13:11:24.550Z,29.03
2023-04-22T13:13:55.872Z,29.01
2023-04-22T13:16:25.502Z,29.31
2023-04-22T13:18:53.880Z,29.21
2023-04-22T13:21:29.021Z,29.48
2023-04-22T13:23:57.179Z,30.00
2023-04-22T13:26:28.388Z,30.52
2023-04-22T13:28:56.542Z,30.68
2023-04-22T13:31:24.650Z,30.80
2023-04-22T13:33:52.931Z,30.49
2023-04-22T13:36:21.152Z,30.14
2023-04-22T13:38:49.229Z,30.75
2023-04-22T13:41:45.864Z,30.24
2023-04-22T13:44:15.434Z,30.89
2023-04-22T13:46:43.860Z,32.32
2023-04-22T13:49:12.292Z,32.85
2023-04-22T13:51:41.444Z,31.90
2023-04-22T13:54:09.613Z,32.32
2023-04-22T13:56:37.818Z,32.63
2023-04-22T13:59:08.886Z,32.70
2023-04-22T14:01:38.012Z,32.04
2023-04-22T14:04:06.458Z,32.04
2023-04-22T14:06:34.969Z,32.49
2023-04-22T14:09:04.857Z,32.70
2023-04-22T14:11:34.391Z,32.84
2023-04-22T14:14:02.477Z,33.71
2023-04-22T14:16:31.780Z,34.14
2023-04-22T14:19:02.763Z,34.30
2023-04-22T14:21:31.381Z,34.40
2023-04-22T14:23:59.585Z,35.02
2023-04-22T14:26:32.757Z,35.63
2023-04-22T14:29:01.112Z,35.31
2023-04-22T14:31:29.589Z,34.76
2023-04-22T14:33:57.872Z,34.63
2023-04-22T14:36:26.914Z,34.05
2023-04-22T14:38:55.063Z,34.78
2023-04-22T14:41:23.223Z,35.17
2023-04-22T14:43:51.426Z,35.86
2023-04-22T14:46:19.528Z,36.03
2023-04-22T14:48:47.591Z,36.05
2023-04-22T14:51:15.701Z,36.57
2023-04-22T14:53:44.249Z,37.07
2023-04-22T14:56:12.390Z,36.68
2023-04-22T14:58:40.560Z,36.43
2023-04-22T15:01:08.780Z,36.56
2023-04-22T15:03:37.288Z,36.95
2023-04-22T15:06:05.793Z,36.81
2023-04-22T15:08:34.156Z,36.93
2023-04-22T15:11:02.384Z,37.29
2023-04-22T15:13:30.630Z,37.45
2023-04-22T15:15:59.236Z,37.85
2023-04-22T15:18:27.458Z,37.58
2023-04-22T15:20:55.653Z,37.39
2023-04-22T15:23:23.813Z,37.02
2023-04-22T15:25:51.965Z,37.38
2023-04-22T15:28:20.227Z,37.76
2023-04-22T15:30:50.190Z,38.00
2023-04-22T15:33:18.371Z,37.90
2023-04-22T15:35:49.509Z,37.94
2023-04-22T15:38:17.793Z,38.01
2023-04-22T15:40:46.079Z,37.98
2023-04-22T15:43:14.200Z,37.57
2023-04-22T15:45:42.632Z,37.17
2023-04-22T15:48:13.130Z,37.51
2023-04-22T15:50:44.576Z,37.16
2023-04-22T15:53:12.733Z,37.15
2023-04-22T15:55:41.037Z,37.49
2023-04-22T15:58:11.851Z,37.74
2023-04-22T16:00:40.070Z,37.88
2023-04-22T16:03:08.490Z,38.01
2023-04-22T16:05:36.799Z,37.52
2023-04-22T16:08:04.960Z,37.67
2023-04-22T16:10:33.336Z,37.65
2023-04-22T16:13:01.625Z,37.70
2023-04-22T16:15:29.946Z,37.69
2023-04-22T16:17:58.234Z,37.73
2023-04-22T16:20:26.373Z,37.74
2023-04-22T16:22:54.646Z,38.08
2023-04-22T16:25:22.857Z,38.33
2023-04-22T16:27:51.194Z,38.70
2023-04-22T16:30:19.488Z,38.54
2023-04-22T16:32:47.773Z,39.04
2023-04-22T16:35:18.364Z,39.25
2023-04-22T16:37:46.815Z,39.09
2023-04-22T16:40:14.889Z,39.30
2023-04-22T16:42:43.140Z,39.37
2023-04-22T16:45:11.575Z,39.25
2023-04-22T16:47:40.318Z,39.19
2023-04-22T16:50:12.278Z,39.46
2023-04-22T16:52:40.984Z,39.35
2023-04-22T16:55:09.174Z,40.09
2023-04-22T16:57:37.872Z,41.14
2023-04-22T17:00:06.558Z,41.69
2023-04-22T17:02:35.082Z,42.34
2023-04-22T17:05:04.561Z,42.38
2023-04-22T17:07:32.734Z,42.76
2023-04-22T17:10:00.828Z,42.72
2023-04-22T17:12:29.128Z,43.18
2023-04-22T17:14:57.386Z,43.12
2023-04-22T17:17:25.723Z,42.84
2023-04-22T17:19:53.943Z,42.40
2023-04-22T17:22:24.804Z,42.23
2023-04-22T17:24:52.968Z,43.26
2023-04-22T17:27:21.178Z,44.39
2023-04-22T17:29:49.218Z,44.61
2023-04-22T17:32:17.337Z,44.44
2023-04-22T17:34:45.718Z,44.69
2023-04-22T17:37:14.043Z,44.73
2023-04-22T17:39:42.282Z,44.39
2023-04-22T17:42:14.013Z,45.24
2023-04-22T17:44:42.751Z,44.80
2023-04-22T17:47:11.076Z,44.99
2023-04-22T17:49:39.572Z,45.41
2023-04-22T17:52:07.813Z,46.05
2023-04-22T17:54:37.274Z,46.98
2023-04-22T17:57:05.469Z,47.35
2023-04-22T17:59:33.675Z,47.13
2023-04-22T18:02:02.228Z,46.79
2023-04-22T18:04:33.635Z,47.40
2023-04-22T18:07:01.864Z,47.62
2023-04-22T18:09:30.372Z,48.09
2023-04-22T18:11:58.849Z,48.35
2023-04-22T18:14:27.657Z,49.08
2023-04-22T18:16:55.972Z,49.78
2023-04-22T18:19:24.190Z,49.27
2023-04-22T18:21:59.582Z,48.99
2023-04-22T18:24:28.782Z,49.16
2023-04-22T18:26:57.708Z,49.75
2023-04-22T18:29:28.416Z,50.21
2023-04-22T18:31:57.008Z,50.17
2023-04-22T18:34:25.595Z,50.40
2023-04-22T18:36:54.072Z,50.90
2023-04-22T18:39:22.431Z,50.96
2023-04-22T18:41:50.789Z,50.90
2023-04-22T18:44:19.378Z,51.07
2023-04-22T18:46:47.635Z,50.73
2023-04-22T18:49:15.683Z,50.82
2023-04-22T18:51:44.004Z,51.15
2023-04-22T18:54:12.311Z,51.74
2023-04-22T18:56:40.641Z,51.86
2023-04-22T18:59:08.816Z,51.34
2023-04-22T19:01:39.780Z,50.96
2023-04-22T19:04:11.976Z,50.72
2023-04-22T19:06:41.558Z,50.80
2023-04-22T19:09:09.799Z,50.68
2023-04-22T19:11:37.982Z,50.76
2023-04-22T19:14:06.500Z,50.86
2023-04-22T19:16:34.849Z,50.81
2023-04-22T19:19:03.074Z,50.78
2023-04-22T19:21:32.580Z,50.88
2023-04-22T19:24:02.381Z,51.01
2023-04-22T19:26:31.361Z,51.16
2023-04-22T19:28:59.740Z,51.26
2023-04-22T19:31:30.980Z,51.22
2023-04-22T19:34:05.315Z,51.35
2023-04-22T19:36:36.645Z,51.46
2023-04-22T19:39:06.241Z,51.61
2023-04-22T19:41:38.058Z,51.71
2023-04-22T19:44:07.229Z,51.56
2023-04-22T19:46:37.048Z,51.69
2023-04-22T19:49:06.979Z,51.90
2023-04-22T19:51:35.764Z,52.12
2023-04-22T19:54:10.960Z,52.21
2023-04-22T19:56:41.504Z,52.18
2023-04-22T19:59:09.723Z,52.31
2023-04-22T20:01:38.355Z,52.57
2023-04-22T20:04:06.844Z,52.88
2023-04-22T20:06:35.687Z,53.21
2023-04-22T20:09:05.535Z,53.45
2023-04-22T20:11:34.738Z,53.46
2023-04-22T20:14:03.256Z,53.41
2023-04-22T20:16:32.912Z,53.49
2023-04-22T20:19:04.681Z,53.84
2023-04-22T20:21:33.490Z,53.81
2023-04-22T20:24:04.022Z,54.04
2023-04-22T20:26:32.497Z,53.85
2023-04-22T20:29:00.880Z,53.74
2023-04-22T20:31:29.436Z,53.66
2023-04-22T20:33:58.175Z,53.69
2023-04-22T20:36:26.633Z,53.85
2023-04-22T20:38:55.020Z,54.07
2023-04-22T20:41:24.638Z,54.27
2023-04-22T20:43:53.126Z,54.29
2023-04-22T20:46:23.360Z,54.42
2023-04-22T20:48:51.732Z,54.72
2023-04-22T20:51:19.958Z,54.73
2023-04-22T20:53:48.452Z,54.90
2023-04-22T20:56:16.705Z,55.02
2023-04-22T20:58:45.063Z,55.04
2023-04-22T21:01:16.333Z,55.03
2023-04-22T21:03:48.139Z,55.04
2023-04-22T21:06:16.364Z,55.28
2023-04-22T21:08:44.448Z,55.51
2023-04-22T21:11:12.757Z,55.21
2023-04-22T21:13:42.556Z,55.12
2023-04-22T21:16:11.262Z,55.45
2023-04-22T21:18:40.819Z,55.82
2023-04-22T21:21:08.999Z,56.11
2023-04-22T21:23:37.169Z,56.11
2023-04-22T21:26:10.795Z,55.97
2023-04-22T21:28:39.501Z,56.01
2023-04-22T21:31:08.309Z,56.05
2023-04-22T21:33:48.546Z,56.26
2023-04-22T21:36:22.821Z,56.14
2023-04-22T21:38:51.081Z,56.34
2023-04-22T21:41:19.690Z,56.52
2023-04-22T21:43:47.784Z,56.47
2023-04-22T21:46:16.149Z,56.56
2023-04-22T21:48:44.403Z,56.66
2023-04-22T21:51:12.730Z,56.83
2023-04-22T21:53:40.922Z,57.14
2023-04-22T21:56:09.063Z,57.26
2023-04-22T21:58:39.629Z,57.45
2023-04-22T22:01:15.082Z,57.40
2023-04-22T22:03:44.587Z,57.46
2023-04-22T22:06:23.936Z,57.39
2023-04-22T22:11:44.329Z,57.61
2023-04-22T22:14:12.966Z,57.80
2023-04-22T22:16:41.338Z,58.04
2023-04-22T22:19:11.249Z,58.31
2023-04-22T22:21:39.470Z,58.54
2023-04-22T22:24:09.617Z,58.38
2023-04-22T22:26:41.164Z,58.37
2023-04-22T22:29:15.537Z,58.27
2023-04-22T22:31:47.661Z,58.29
2023-04-22T22:34:15.854Z,58.59
2023-04-22T22:36:44.061Z,58.81
2023-04-22T22:39:14.493Z,58.40
2023-04-22T22:41:44.011Z,57.79
2023-04-22T22:44:12.397Z,57.75
2023-04-22T22:46:43.804Z,57.54
2023-04-22T22:49:11.981Z,57.49
2023-04-22T22:51:40.307Z,57.49
2023-04-22T22:54:09.477Z,57.16
2023-04-22T22:56:38.299Z,57.08
2023-04-22T22:59:06.690Z,57.26
2023-04-22T23:01:34.920Z,57.09
2023-04-22T23:04:06.579Z,57.17
2023-04-22T23:06:39.473Z,57.23
2023-04-22T23:09:09.227Z,57.12
2023-04-22T23:11:37.379Z,57.43
2023-04-22T23:14:05.972Z,57.79
2023-04-22T23:16:35.226Z,57.70
2023-04-22T23:19:03.538Z,57.73
2023-04-22T23:21:33.919Z,57.79
2023-04-22T23:24:02.347Z,57.94
2023-04-22T23:26:30.858Z,58.57
2023-04-22T23:28:59.171Z,59.01
2023-04-22T23:31:27.754Z,59.16
2023-04-22T23:33:56.770Z,58.98
2023-04-22T23:36:25.325Z,59.28
2023-04-22T23:38:57.934Z,59.63
2023-04-22T23:41:26.566Z,59.66
2023-04-22T23:43:54.643Z,59.78
2023-04-22T23:46:22.847Z,59.98
2023-04-22T23:48:54.056Z,59.94
2023-04-22T23:51:22.152Z,59.78
2023-04-22T23:53:50.370Z,60.04
2023-04-22T23:56:21.188Z,60.01
2023-04-22T23:58:50.218Z,60.34
